Nord Imagination — 3FIA8 — position and weather

sailwx.info

Track history (hours):
 
Tides and Currents Weather Stations Pressure Air Temp Water Temp Dewpoint Dewpoint Depression Visibility Wind Speed Wind Dir Waves Ship Positions

Nord Imagination

Last reported at 2014-Nov-28 03:27 UTC. Time now 2014-Nov-28 18:16 UTC.
Position N 39°57' W 073°17'.

Length 179 m; draft 8.5 m.

Type: Ship (hazmat cat B). MMSI: 354828000.

Date/timePositionNaut miles runAvg speedWind from/ knotsBaromVisibWave heightAir tempDewpointWater temp
2014-Nov-28 03:27N 39°57' W 073°17'2813.0
2014-Nov-28 01:19N 40°18' W 073°39'910.3
2014-Nov-28 00:29N 40°25' W 073°47'8 9.0
2014-Nov-27 23:33N 40°30' W 073°56'1010.4
2014-Nov-27 22:33N 40°38' W 074°04'0 0.1
2014-Nov-27 21:33N 40°38' W 074°04'0 0.0
2014-Nov-27 20:33N 40°38' W 074°04'0 0.0
2014-Nov-27 19:33N 40°38' W 074°04'0 0.1
2014-Nov-27 18:33N 40°38' W 074°04'0 0.2
2014-Nov-27 17:33N 40°38' W 074°04'0 0.0
2014-Nov-27 16:30N 40°38' W 074°04'0 0.0
2014-Nov-27 15:33N 40°38' W 074°04'0 0.0
2014-Nov-27 14:33N 40°38' W 074°04'0 0.1
2014-Nov-27 13:33N 40°38' W 074°04'0 0.2
2014-Nov-27 12:33N 40°38' W 074°04'1 0.8
2014-Nov-27 11:34N 40°37' W 074°03'9 8.6
2014-Nov-27 10:34N 40°30' W 073°57'4 4.1
2014-Nov-27 09:33N 40°29' W 074°02'10 9.8
2014-Nov-27 08:33N 40°29' W 074°15'4 0.1
2014-Nov-25 22:33N 40°33' W 074°15'4 3.0
2014-Nov-25 21:12N 40°30' W 074°11'5 8.4
2014-Nov-25 20:34N 40°29' W 074°04'7 7.0
2014-Nov-25 19:33N 40°36' W 074°03'5 5.0
2014-Nov-25 18:34N 40°39' W 074°08'4 4.0
2014-Nov-25 17:33N 40°36' W 074°12'0 0.0
2014-Nov-25 15:08N 40°36' W 074°12'0 0.0
2014-Nov-24 10:33N 40°35' W 074°12'5 4.8
2014-Nov-24 09:27N 40°31' W 074°15'7 7.4
2014-Nov-24 08:28N 40°29' W 074°06'8 8.8
2014-Nov-24 07:33N 40°27' W 073°56'6 5.7
2014-Nov-24 06:33N 40°32' W 074°01'6 6.3
2014-Nov-24 05:33N 40°38' W 074°04'0 0.0
2014-Nov-24 04:33N 40°38' W 074°04'0 0.2
2014-Nov-24 03:33N 40°38' W 074°04'0 0.0
2014-Nov-24 02:33N 40°38' W 074°04'0 0.0
2014-Nov-24 01:33N 40°38' W 074°04'0 0.0
2014-Nov-24 00:33N 40°38' W 074°04'0 0.0
2014-Nov-23 23:33N 40°38' W 074°04'0 0.1
2014-Nov-23 22:33N 40°38' W 074°04'0 0.2
2014-Nov-23 21:33N 40°38' W 074°04'0 0.0
2014-Nov-23 20:33N 40°38' W 074°04'0 0.0
2014-Nov-23 19:33N 40°38' W 074°04'0 0.0
2014-Nov-23 18:33N 40°38' W 074°04'0 0.0
2014-Nov-23 17:33N 40°38' W 074°04'0 0.0
2014-Nov-23 16:33N 40°38' W 074°04'0 0.1
2014-Nov-23 15:33N 40°38' W 074°04'0 0.2
2014-Nov-23 14:33N 40°38' W 074°04'0 0.0
2014-Nov-23 13:33N 40°38' W 074°04'2 1.8
2014-Nov-23 12:34N 40°39' W 074°05'0 0.0
2014-Nov-22 20:13N 40°39' W 074°05'0 0.0
2014-Nov-22 19:25N 40°39' W 074°05'0 0.0
2014-Nov-22 16:31N 40°39' W 074°05'0 0.0
2014-Nov-22 15:19N 40°39' W 074°05'0 0.0
2014-Nov-22 14:25N 40°39' W 074°05'0 0.0
2014-Nov-22 13:31N 40°39' W 074°05'0 0.0
2014-Nov-22 12:33N 40°39' W 074°05'2 1.7
2014-Nov-22 11:33N 40°38' W 074°03'8 8.1
2014-Nov-22 10:33N 40°31' W 073°59'9 8.6
2014-Nov-22 09:32N 40°27' W 073°48'17 0.9
2014-Nov-21 14:12N 40°28' W 073°26'36 7.5
2014-Nov-21 09:25N 40°30' W 072°39'910.8
2014-Nov-21 08:33N 40°31' W 072°27'1110.9
2014-Nov-21 07:34N 40°31' W 072°13'1110.8
2014-Nov-21 06:33N 40°31' W 071°58'1010.4
2014-Nov-21 05:33N 40°32' W 071°45'5 5.2
2014-Nov-21 04:33N 40°32' W 071°38'10 9.8
2014-Nov-21 03:34N 40°32' W 071°25'10 9.8
2014-Nov-21 02:33N 40°32' W 071°12'10 9.7
2014-Nov-21 01:29N 40°32' W 070°58'9 9.4
2014-Nov-21 00:32N 40°33' W 070°47'9 9.4
2014-Nov-20 23:33N 40°33' W 070°34'9 9.2
2014-Nov-20 22:33N 40°33' W 070°22'40 9.6
2014-Nov-20 18:27N 40°28' W 069°31'18 9.1
2014-Nov-20 16:31N 40°34' W 069°53'  
Track history (hours):
 
Tides and Currents Weather Stations Pressure Air Temp Water Temp Dewpoint Dewpoint Depression Visibility Wind Speed Wind Dir Waves Ship Positions

Nord Imagination

Last reported at 2014-Nov-28 03:27 UTC. Time now 2014-Nov-28 18:16 UTC.
Position N 39°57' W 073°17'.

Length 179 m; draft 8.5 m.

Type: Ship (hazmat cat B). MMSI: 354828000.

Date/timePositionNaut miles runAvg speedWind from/ knotsBaromVisibWave heightAir tempDewpointWater temp
2014-Nov-28 03:27N 39°57' W 073°17'2813.0
2014-Nov-28 01:19N 40°18' W 073°39'910.3
2014-Nov-28 00:29N 40°25' W 073°47'8 9.0
2014-Nov-27 23:33N 40°30' W 073°56'1010.4
2014-Nov-27 22:33N 40°38' W 074°04'0 0.1
2014-Nov-27 21:33N 40°38' W 074°04'0 0.0
2014-Nov-27 20:33N 40°38' W 074°04'0 0.0
2014-Nov-27 19:33N 40°38' W 074°04'0 0.1
2014-Nov-27 18:33N 40°38' W 074°04'0 0.2
2014-Nov-27 17:33N 40°38' W 074°04'0 0.0
2014-Nov-27 16:30N 40°38' W 074°04'0 0.0
2014-Nov-27 15:33N 40°38' W 074°04'0 0.0
2014-Nov-27 14:33N 40°38' W 074°04'0 0.1
2014-Nov-27 13:33N 40°38' W 074°04'0 0.2
2014-Nov-27 12:33N 40°38' W 074°04'1 0.8
2014-Nov-27 11:34N 40°37' W 074°03'9 8.6
2014-Nov-27 10:34N 40°30' W 073°57'4 4.1
2014-Nov-27 09:33N 40°29' W 074°02'10 9.8
2014-Nov-27 08:33N 40°29' W 074°15'4 0.1
2014-Nov-25 22:33N 40°33' W 074°15'4 3.0
2014-Nov-25 21:12N 40°30' W 074°11'5 8.4
2014-Nov-25 20:34N 40°29' W 074°04'7 7.0
2014-Nov-25 19:33N 40°36' W 074°03'5 5.0
2014-Nov-25 18:34N 40°39' W 074°08'4 4.0
2014-Nov-25 17:33N 40°36' W 074°12'0 0.0
2014-Nov-25 15:08N 40°36' W 074°12'0 0.0
2014-Nov-24 10:33N 40°35' W 074°12'5 4.8
2014-Nov-24 09:27N 40°31' W 074°15'7 7.4
2014-Nov-24 08:28N 40°29' W 074°06'8 8.8
2014-Nov-24 07:33N 40°27' W 073°56'6 5.7
2014-Nov-24 06:33N 40°32' W 074°01'6 6.3
2014-Nov-24 05:33N 40°38' W 074°04'0 0.0
2014-Nov-24 04:33N 40°38' W 074°04'0 0.2
2014-Nov-24 03:33N 40°38' W 074°04'0 0.0
2014-Nov-24 02:33N 40°38' W 074°04'0 0.0
2014-Nov-24 01:33N 40°38' W 074°04'0 0.0
2014-Nov-24 00:33N 40°38' W 074°04'0 0.0
2014-Nov-23 23:33N 40°38' W 074°04'0 0.1
2014-Nov-23 22:33N 40°38' W 074°04'0 0.2
2014-Nov-23 21:33N 40°38' W 074°04'0 0.0
2014-Nov-23 20:33N 40°38' W 074°04'0 0.0
2014-Nov-23 19:33N 40°38' W 074°04'0 0.0
2014-Nov-23 18:33N 40°38' W 074°04'0 0.0
2014-Nov-23 17:33N 40°38' W 074°04'0 0.0
2014-Nov-23 16:33N 40°38' W 074°04'0 0.1
2014-Nov-23 15:33N 40°38' W 074°04'0 0.2
2014-Nov-23 14:33N 40°38' W 074°04'0 0.0
2014-Nov-23 13:33N 40°38' W 074°04'2 1.8
2014-Nov-23 12:34N 40°39' W 074°05'0 0.0
2014-Nov-22 20:13N 40°39' W 074°05'0 0.0
2014-Nov-22 19:25N 40°39' W 074°05'0 0.0
2014-Nov-22 16:31N 40°39' W 074°05'0 0.0
2014-Nov-22 15:19N 40°39' W 074°05'0 0.0
2014-Nov-22 14:25N 40°39' W 074°05'0 0.0
2014-Nov-22 13:31N 40°39' W 074°05'0 0.0
2014-Nov-22 12:33N 40°39' W 074°05'2 1.7
2014-Nov-22 11:33N 40°38' W 074°03'8 8.1
2014-Nov-22 10:33N 40°31' W 073°59'9 8.6
2014-Nov-22 09:32N 40°27' W 073°48'17 0.9
2014-Nov-21 14:12N 40°28' W 073°26'36 7.5
2014-Nov-21 09:25N 40°30' W 072°39'910.8
2014-Nov-21 08:33N 40°31' W 072°27'1110.9
2014-Nov-21 07:34N 40°31' W 072°13'1110.8
2014-Nov-21 06:33N 40°31' W 071°58'1010.4
2014-Nov-21 05:33N 40°32' W 071°45'5 5.2
2014-Nov-21 04:33N 40°32' W 071°38'10 9.8
2014-Nov-21 03:34N 40°32' W 071°25'10 9.8
2014-Nov-21 02:33N 40°32' W 071°12'10 9.7
2014-Nov-21 01:29N 40°32' W 070°58'9 9.4
2014-Nov-21 00:32N 40°33' W 070°47'9 9.4
2014-Nov-20 23:33N 40°33' W 070°34'9 9.2
2014-Nov-20 22:33N 40°33' W 070°22'40 9.6
2014-Nov-20 18:27N 40°28' W 069°31'18 9.1
2014-Nov-20 16:31N 40°34' W 069°53'  

Dump ship's entire track history